Time;durP1;ratioP1;P1;durP2;ratioP2;P2;SDS_P1;SDS_P2;PMS_P1;PMS_P2;Temp;Humidity;BMP_temperature;BMP_pressure;BME280_temperature;BME280_humidity;BME280_pressure;Samples;Min_cycle;Max_cycle;Signal;HPM_P1;HPM_P2
2023/10/25 00:02:07;;;;;;;9.18;6.85;;;9.10;99.90;;;;;;5035540;28;20037;-86
2023/10/25 00:04:33;;;;;;;10.38;6.90;;;9.10;99.90;;;;;;5032337;28;20175;-86
2023/10/25 00:06:59;;;;;;;8.05;6.95;;;9.10;99.90;;;;;;5033721;28;20040;-87
2023/10/25 00:09:24;;;;;;;10.25;7.03;;;9.10;99.90;;;;;;5019989;28;20051;-86
2023/10/25 00:11:50;;;;;;;11.20;7.50;;;9.10;99.90;;;;;;5035286;28;20044;-86
2023/10/25 00:14:15;;;;;;;10.90;6.60;;;9.10;99.90;;;;;;5033957;28;20048;-86
2023/10/25 00:16:41;;;;;;;10.60;6.95;;;9.00;99.90;;;;;;5013292;28;20045;-85
2023/10/25 00:19:07;;;;;;;10.43;7.15;;;9.00;99.90;;;;;;5018325;28;20206;-86
2023/10/25 00:21:33;;;;;;;11.02;6.95;;;9.00;99.90;;;;;;5032720;28;20676;-87
2023/10/25 00:23:58;;;;;;;12.25;6.75;;;8.90;99.90;;;;;;5034603;28;20037;-86
2023/10/25 00:26:24;;;;;;;9.98;6.93;;;8.90;99.90;;;;;;5014307;28;20034;-86
2023/10/25 00:28:50;;;;;;;12.48;7.07;;;9.00;99.90;;;;;;5035569;28;20124;-86
2023/10/25 00:31:16;;;;;;;9.32;6.95;;;8.90;99.90;;;;;;5016549;28;20064;-86
2023/10/25 00:33:41;;;;;;;9.85;6.80;;;8.80;99.90;;;;;;5014830;28;20075;-86
2023/10/25 00:36:07;;;;;;;11.25;7.10;;;8.80;99.90;;;;;;5033560;28;20044;-86
2023/10/25 00:38:32;;;;;;;10.35;6.68;;;8.80;99.90;;;;;;5031836;28;20037;-86
2023/10/25 00:40:58;;;;;;;10.27;7.18;;;8.80;99.90;;;;;;5016371;28;20090;-85
2023/10/25 00:43:24;;;;;;;11.52;7.80;;;8.80;99.90;;;;;;5015314;28;20064;-86
2023/10/25 00:45:58;;;;;;;10.30;6.88;;;8.80;99.90;;;;;;5032373;28;20525;-86
2023/10/25 00:48:25;;;;;;;12.82;7.97;;;8.80;99.90;;;;;;5019994;28;20126;-86
2023/10/25 00:50:52;;;;;;;13.13;7.80;;;8.80;99.90;;;;;;5011509;28;20067;-86
2023/10/25 00:53:18;;;;;;;11.73;7.18;;;8.70;99.90;;;;;;5022731;28;20045;-86
2023/10/25 00:55:44;;;;;;;11.23;6.93;;;8.70;99.90;;;;;;5015319;28;20387;-86
2023/10/25 00:58:09;;;;;;;13.88;7.50;;;8.70;99.90;;;;;;5015609;28;20033;-86
2023/10/25 01:00:35;;;;;;;8.75;7.63;;;8.70;99.90;;;;;;5015815;28;20523;-86
2023/10/25 01:03:07;;;;;;;11.98;7.43;;;8.70;99.90;;;;;;5035528;28;20040;-85
2023/10/25 01:05:32;;;;;;;12.27;7.65;;;8.70;99.90;;;;;;5030294;28;20449;-86
2023/10/25 01:07:58;;;;;;;11.27;7.00;;;8.70;99.90;;;;;;5013774;28;20136;-86
2023/10/25 01:10:25;;;;;;;9.38;7.60;;;8.70;99.90;;;;;;5033887;28;20079;-86
2023/10/25 01:12:50;;;;;;;12.93;7.70;;;8.70;99.90;;;;;;5034972;28;20410;-86
2023/10/25 01:15:20;;;;;;;11.55;7.97;;;8.70;99.90;;;;;;5033236;28;20033;-86
2023/10/25 01:17:46;;;;;;;11.82;7.15;;;8.70;99.90;;;;;;5032574;28;20052;-86
2023/10/25 01:20:11;;;;;;;12.23;7.70;;;8.70;99.90;;;;;;5032111;28;20037;-86
2023/10/25 01:22:37;;;;;;;13.82;6.95;;;8.70;99.90;;;;;;5032771;28;20076;-86
2023/10/25 01:25:03;;;;;;;11.85;7.65;;;8.70;99.90;;;;;;5033039;28;20033;-86
2023/10/25 01:27:29;;;;;;;11.43;7.75;;;8.70;99.90;;;;;;5032341;28;20114;-87
2023/10/25 01:29:54;;;;;;;8.48;7.03;;;8.70;99.90;;;;;;5032855;28;20517;-86
2023/10/25 01:32:20;;;;;;;13.40;7.35;;;8.60;99.90;;;;;;5030882;28;20036;-86
2023/10/25 01:34:45;;;;;;;9.27;7.43;;;8.60;99.90;;;;;;5015617;28;20064;-86
2023/10/25 01:37:13;;;;;;;11.00;7.82;;;8.60;99.90;;;;;;5016021;28;20033;-86
2023/10/25 01:39:38;;;;;;;11.80;7.63;;;8.60;99.90;;;;;;5033067;28;20040;-86
2023/10/25 01:42:04;;;;;;;11.45;8.07;;;8.60;99.90;;;;;;5011985;28;20045;-86
2023/10/25 01:44:32;;;;;;;13.20;7.57;;;8.60;99.90;;;;;;5032653;28;20044;-86
2023/10/25 01:46:57;;;;;;;11.68;8.07;;;8.60;99.90;;;;;;5031978;28;20029;-86
2023/10/25 01:49:23;;;;;;;13.27;8.35;;;8.60;99.90;;;;;;5018483;28;20033;-86
2023/10/25 01:51:48;;;;;;;12.77;7.85;;;8.60;99.90;;;;;;5031867;28;20051;-86
2023/10/25 01:54:14;;;;;;;13.23;8.60;;;8.60;99.90;;;;;;5018868;28;20037;-86
2023/10/25 01:56:40;;;;;;;13.13;7.72;;;8.60;99.90;;;;;;5031739;28;20036;-86
2023/10/25 01:59:05;;;;;;;14.20;8.35;;;8.60;99.90;;;;;;5016107;28;20128;-87
2023/10/25 02:01:31;;;;;;;12.82;8.35;;;8.60;99.90;;;;;;5015926;28;20151;-86
2023/10/25 02:03:57;;;;;;;12.57;7.90;;;8.60;99.90;;;;;;5029519;28;20045;-86
2023/10/25 02:06:23;;;;;;;13.65;8.00;;;8.60;99.90;;;;;;5030710;28;20555;-86
2023/10/25 02:08:48;;;;;;;13.27;8.13;;;8.60;99.90;;;;;;5033948;28;20132;-86
2023/10/25 02:11:15;;;;;;;10.75;7.60;;;8.60;99.90;;;;;;5029592;28;20501;-87
2023/10/25 02:13:41;;;;;;;13.27;8.80;;;8.60;99.90;;;;;;5015997;28;20045;-86
2023/10/25 02:16:14;;;;;;;11.68;7.70;;;8.60;99.90;;;;;;5032469;28;20041;-86
2023/10/25 02:18:40;;;;;;;;;;;8.60;99.90;;;;;;5022529;28;20037;-86
2023/10/25 02:21:06;;;;;;;13.27;8.07;;;8.60;99.90;;;;;;5032185;28;19917;-86
2023/10/25 02:23:31;;;;;;;13.25;9.13;;;8.50;99.90;;;;;;5033113;28;20120;-85
2023/10/25 02:25:57;;;;;;;11.77;8.45;;;8.50;99.90;;;;;;5032493;28;20391;-84
2023/10/25 02:28:23;;;;;;;13.25;8.63;;;8.50;99.90;;;;;;5020122;28;20065;-84
2023/10/25 02:30:48;;;;;;;12.45;8.70;;;8.50;99.90;;;;;;5030310;28;20072;-84
2023/10/25 02:33:14;;;;;;;12.80;8.77;;;8.50;99.90;;;;;;5016804;28;20077;-83
2023/10/25 02:35:40;;;;;;;13.15;8.93;;;8.50;99.90;;;;;;5034958;28;20485;-84
2023/10/25 02:38:05;;;;;;;13.40;9.27;;;8.50;99.90;;;;;;5017536;28;20043;-84
2023/10/25 02:40:31;;;;;;;12.13;8.88;;;8.50;99.90;;;;;;5018806;28;20044;-84
2023/10/25 02:42:56;;;;;;;15.18;9.05;;;8.50;99.90;;;;;;5018227;28;20063;-84
2023/10/25 02:45:22;;;;;;;12.10;8.80;;;8.40;99.90;;;;;;5035338;28;20037;-85
2023/10/25 02:47:48;;;;;;;15.38;9.20;;;8.50;99.90;;;;;;5019390;28;20541;-83
2023/10/25 02:50:15;;;;;;;12.35;8.82;;;8.40;99.90;;;;;;5015636;28;20040;-84
2023/10/25 02:52:43;;;;;;;14.80;9.68;;;8.40;99.90;;;;;;5034644;28;20048;-84
2023/10/25 02:55:09;;;;;;;14.88;8.50;;;8.50;99.90;;;;;;5015079;28;20041;-84
2023/10/25 02:57:35;;;;;;;13.80;9.32;;;8.40;99.90;;;;;;5035329;28;20041;-84
2023/10/25 03:00:00;;;;;;;14.40;9.07;;;8.40;99.90;;;;;;5035180;28;20148;-85
2023/10/25 03:02:26;;;;;;;11.88;9.65;;;8.40;99.90;;;;;;5022022;28;20033;-85
2023/10/25 03:04:51;;;;;;;11.60;9.75;;;8.40;99.90;;;;;;5035897;28;20094;-84
2023/10/25 03:07:17;;;;;;;11.40;9.02;;;8.40;99.90;;;;;;5031706;28;20510;-84
2023/10/25 03:09:43;;;;;;;12.82;9.38;;;8.40;99.90;;;;;;5036709;28;20064;-84
2023/10/25 03:12:08;;;;;;;12.95;9.07;;;8.40;99.90;;;;;;5017819;28;20032;-84
2023/10/25 03:14:34;;;;;;;13.30;9.30;;;8.30;99.90;;;;;;5038282;28;20079;-85
2023/10/25 03:16:59;;;;;;;16.40;9.50;;;8.30;99.90;;;;;;5018495;28;20068;-84
2023/10/25 03:19:29;;;;;;;15.52;9.07;;;8.30;99.90;;;;;;5033079;28;20037;-84
2023/10/25 03:21:55;;;;;;;10.65;8.73;;;8.30;99.90;;;;;;5034291;28;20036;-84
2023/10/25 03:24:20;;;;;;;13.27;9.13;;;8.30;99.90;;;;;;5014815;28;20049;-84
2023/10/25 03:26:46;;;;;;;14.35;9.20;;;8.20;99.90;;;;;;5033118;28;20033;-84
2023/10/25 03:29:12;;;;;;;11.02;8.50;;;8.20;99.90;;;;;;5018949;28;20095;-84
2023/10/25 03:31:38;;;;;;;13.77;9.20;;;8.20;99.90;;;;;;5033482;28;20044;-84
2023/10/25 03:34:04;;;;;;;14.23;8.93;;;8.20;99.90;;;;;;5018792;28;20098;-86
2023/10/25 03:36:29;;;;;;;11.52;8.82;;;8.10;99.90;;;;;;5044476;28;20036;-87
2023/10/25 03:38:55;;;;;;;11.55;8.23;;;8.10;99.90;;;;;;5032592;28;20437;-85
2023/10/25 03:41:21;;;;;;;15.50;9.85;;;8.10;99.90;;;;;;5016640;28;20037;-84
2023/10/25 03:43:46;;;;;;;13.50;8.73;;;8.10;99.90;;;;;;5015323;28;20039;-85
2023/10/25 03:46:12;;;;;;;11.93;8.88;;;8.10;99.90;;;;;;5017279;28;20036;-84
2023/10/25 03:48:39;;;;;;;12.57;8.95;;;8.00;99.90;;;;;;5018227;28;20057;-84
2023/10/25 03:51:06;;;;;;;13.75;9.55;;;8.00;99.90;;;;;;5039335;28;20062;-83
2023/10/25 03:53:35;;;;;;;12.05;8.70;;;8.00;99.90;;;;;;5041940;28;20046;-84
2023/10/25 03:56:01;;;;;;;15.23;8.93;;;8.00;99.90;;;;;;5034608;28;20041;-85
2023/10/25 03:58:26;;;;;;;12.10;8.88;;;7.90;99.90;;;;;;5014413;28;20029;-84
2023/10/25 04:01:04;;;;;;;15.68;8.95;;;7.90;99.90;;;;;;5033435;28;20075;-84
2023/10/25 04:03:30;;;;;;;16.63;9.27;;;7.90;99.90;;;;;;5016318;28;20024;-84
2023/10/25 04:05:55;;;;;;;12.27;9.55;;;7.90;99.90;;;;;;5032110;28;20042;-84
2023/10/25 04:08:22;;;;;;;13.93;9.07;;;7.90;99.90;;;;;;5029286;28;20060;-84
2023/10/25 04:10:52;;;;;;;12.75;9.75;;;7.90;99.90;;;;;;5034973;28;20531;-84
2023/10/25 04:13:18;;;;;;;13.60;9.00;;;7.90;99.90;;;;;;5030970;28;20037;-84
2023/10/25 04:15:56;;;;;;;10.00;8.30;;;7.80;99.90;;;;;;5017790;28;20053;-84
2023/10/25 04:18:23;;;;;;;12.75;8.70;;;7.80;99.90;;;;;;5017250;28;20487;-83
2023/10/25 04:20:48;;;;;;;13.38;8.50;;;7.80;99.90;;;;;;5034334;28;20128;-84
2023/10/25 04:23:14;;;;;;;11.88;8.52;;;7.80;99.90;;;;;;5033086;28;20133;-83
2023/10/25 04:25:40;;;;;;;13.43;9.18;;;7.80;99.90;;;;;;5032828;28;20077;-83
2023/10/25 04:28:05;;;;;;;12.38;9.38;;;7.70;99.90;;;;;;5035943;28;20043;-84
2023/10/25 04:30:34;;;;;;;12.50;9.30;;;7.70;99.90;;;;;;5016507;28;20525;-83
2023/10/25 04:33:01;;;;;;;10.27;8.38;;;7.70;99.90;;;;;;5033065;28;20072;-83
2023/10/25 04:35:26;;;;;;;12.70;9.02;;;7.70;99.90;;;;;;5016947;28;20043;-84
2023/10/25 04:37:52;;;;;;;12.38;8.45;;;7.70;99.90;;;;;;5015953;28;20033;-83
2023/10/25 04:40:18;;;;;;;14.15;9.02;;;7.70;99.90;;;;;;5031804;28;20037;-84
2023/10/25 04:42:46;;;;;;;12.48;8.85;;;7.70;99.90;;;;;;5015624;28;20037;-83
2023/10/25 04:45:11;;;;;;;11.75;8.95;;;7.60;99.90;;;;;;5033734;28;20045;-83
2023/10/25 04:47:37;;;;;;;9.65;8.65;;;7.70;99.90;;;;;;5032401;28;20037;-84
2023/10/25 04:50:04;;;;;;;14.45;8.73;;;7.60;99.90;;;;;;5033177;28;20531;-84
2023/10/25 04:52:30;;;;;;;20.45;8.82;;;7.60;99.90;;;;;;5017258;28;20549;-84
2023/10/25 04:54:57;;;;;;;12.40;9.13;;;7.60;99.90;;;;;;5030802;28;20733;-84
2023/10/25 04:57:22;;;;;;;13.07;9.38;;;7.70;99.90;;;;;;5033072;28;20032;-83
2023/10/25 04:59:48;;;;;;;16.80;9.77;;;7.60;99.90;;;;;;5015295;28;20070;-84
2023/10/25 05:02:14;;;;;;;11.60;8.52;;;7.60;99.90;;;;;;5033848;28;20029;-83
2023/10/25 05:04:40;;;;;;;13.63;8.95;;;7.60;99.90;;;;;;5031096;28;20097;-83
2023/10/25 05:07:06;;;;;;;15.60;9.50;;;7.60;99.90;;;;;;5037894;28;20605;-84
2023/10/25 05:09:32;;;;;;;14.15;9.82;;;7.60;99.90;;;;;;5026959;28;20510;-85
2023/10/25 05:12:03;;;;;;;11.82;9.75;;;7.60;99.90;;;;;;5032619;28;20128;-83
2023/10/25 05:14:29;;;;;;;13.57;10.23;;;7.60;99.90;;;;;;5028478;28;20067;-84
2023/10/25 05:16:55;;;;;;;13.13;10.18;;;7.60;99.90;;;;;;5035001;28;20036;-84
2023/10/25 05:19:21;;;;;;;15.85;10.23;;;7.60;99.90;;;;;;5013367;28;20585;-83
2023/10/25 05:21:50;;;;;;;16.85;10.20;;;7.60;99.90;;;;;;5031863;28;20076;-84
2023/10/25 05:24:17;;;;;;;14.23;10.70;;;7.60;99.90;;;;;;5030082;28;20068;-83
2023/10/25 05:26:43;;;;;;;14.90;10.82;;;7.60;99.90;;;;;;5011584;28;20029;-83
2023/10/25 05:29:09;;;;;;;15.52;11.20;;;7.60;99.90;;;;;;5013241;28;20037;-83
2023/10/25 05:31:45;;;;;;;17.90;10.95;;;7.60;99.90;;;;;;5017347;28;20094;-83
2023/10/25 05:34:11;;;;;;;18.70;12.05;;;7.60;99.90;;;;;;5031118;28;20503;-83
2023/10/25 05:36:38;;;;;;;14.18;12.63;;;7.60;99.90;;;;;;5011018;28;20041;-84
2023/10/25 05:39:05;;;;;;;18.77;11.75;;;7.60;99.90;;;;;;5032840;28;20041;-83
2023/10/25 05:41:36;;;;;;;16.35;11.57;;;7.60;99.90;;;;;;5016197;28;20055;-84
2023/10/25 05:44:14;;;;;;;17.00;12.32;;;7.60;99.90;;;;;;5014654;28;20088;-83
2023/10/25 05:46:40;;;;;;;20.00;12.02;;;7.60;99.90;;;;;;5032041;28;20119;-83
2023/10/25 05:49:06;;;;;;;17.80;13.05;;;7.60;99.90;;;;;;5033926;28;20123;-84
2023/10/25 05:51:32;;;;;;;16.10;13.25;;;7.60;99.90;;;;;;5041380;28;20033;-83
2023/10/25 05:54:01;;;;;;;18.60;13.35;;;7.60;99.90;;;;;;5017613;28;20030;-84
2023/10/25 05:56:30;;;;;;;15.70;12.45;;;7.60;99.90;;;;;;5023598;28;20040;-84
2023/10/25 05:58:59;;;;;;;15.18;12.18;;;7.60;99.90;;;;;;5017037;28;20095;-83
2023/10/25 06:01:49;;;;;;;15.57;12.18;;;7.60;99.90;;;;;;5034184;28;20052;-84
2023/10/25 06:04:16;;;;;;;16.52;13.38;;;7.60;99.90;;;;;;5034395;28;20507;-84
2023/10/25 06:06:43;;;;;;;17.83;12.38;;;7.60;99.90;;;;;;5017542;28;20060;-84
2023/10/25 06:09:10;;;;;;;12.43;10.15;;;7.50;99.90;;;;;;5017030;28;20064;-84
2023/10/25 06:11:38;;;;;;;15.27;11.68;;;7.60;99.90;;;;;;5020671;28;20049;-84
2023/10/25 06:14:04;;;;;;;15.70;11.85;;;7.50;99.90;;;;;;5035573;28;20041;-84
2023/10/25 06:16:30;;;;;;;14.23;11.55;;;7.50;99.90;;;;;;5036929;28;20094;-84
2023/10/25 06:18:56;;;;;;;19.05;11.18;;;7.50;99.90;;;;;;5033305;28;20551;-84
2023/10/25 06:21:21;;;;;;;16.77;12.07;;;7.40;99.90;;;;;;5020555;28;20040;-84
2023/10/25 06:23:47;;;;;;;17.98;11.35;;;7.50;99.90;;;;;;5057047;28;20063;-84
2023/10/25 06:26:13;;;;;;;17.17;11.60;;;7.50;99.90;;;;;;5036237;28;20047;-83
2023/10/25 06:28:38;;;;;;;19.30;11.35;;;7.40;99.90;;;;;;5037559;28;20403;-83
2023/10/25 06:31:05;;;;;;;15.80;11.55;;;7.40;99.90;;;;;;5014118;28;20072;-84
2023/10/25 06:33:31;;;;;;;15.82;10.70;;;7.40;99.90;;;;;;5031082;28;20042;-84
2023/10/25 06:36:00;;;;;;;12.98;10.05;;;7.40;99.90;;;;;;5027273;28;20056;-85
2023/10/25 06:38:26;;;;;;;11.57;9.27;;;7.40;99.90;;;;;;5029390;28;20124;-84
2023/10/25 06:40:52;;;;;;;17.05;9.80;;;7.30;99.90;;;;;;5012260;28;20041;-85
2023/10/25 06:43:18;;;;;;;14.20;9.25;;;7.30;99.90;;;;;;5013537;28;20061;-85
2023/10/25 06:45:46;;;;;;;13.90;10.13;;;7.30;99.90;;;;;;5008678;28;20411;-84
2023/10/25 06:48:12;;;;;;;14.25;9.90;;;7.20;99.90;;;;;;5015169;28;20613;-85
2023/10/25 06:50:38;;;;;;;13.13;9.98;;;7.20;99.90;;;;;;5025805;28;20151;-86
2023/10/25 06:53:04;;;;;;;14.45;10.35;;;7.20;99.90;;;;;;5026216;28;20703;-86
2023/10/25 06:55:30;;;;;;;13.55;9.95;;;7.30;99.90;;;;;;5023399;28;20041;-85
2023/10/25 06:57:56;;;;;;;14.95;9.98;;;7.30;99.90;;;;;;5019852;28;20599;-85
2023/10/25 07:00:22;;;;;;;11.45;9.07;;;7.30;99.90;;;;;;5014870;28;20495;-86
2023/10/25 07:02:53;;;;;;;13.23;9.55;;;7.40;99.90;;;;;;5018615;28;20074;-86
2023/10/25 07:05:23;;;;;;;;;;;7.30;99.90;;;;;;5004807;28;20049;-86
2023/10/25 07:07:55;;;;;;;12.80;9.60;;;7.40;99.90;;;;;;5008479;28;20302;-85
2023/10/25 07:10:22;;;;;;;14.15;10.82;;;7.40;99.90;;;;;;5002687;28;20061;-86
2023/10/25 07:12:48;;;;;;;15.02;10.43;;;7.50;99.90;;;;;;5019679;28;20196;-85
2023/10/25 07:15:14;;;;;;;16.75;11.10;;;7.60;99.90;;;;;;5013477;28;20155;-85
2023/10/25 07:17:44;;;;;;;16.77;10.90;;;7.70;99.90;;;;;;5034115;28;20052;-86
2023/10/25 07:20:11;;;;;;;17.40;11.20;;;7.80;99.90;;;;;;5020350;28;20083;-86
2023/10/25 07:22:38;;;;;;;18.02;10.20;;;7.80;99.90;;;;;;5011569;28;20036;-86
2023/10/25 07:25:05;;;;;;;17.77;11.40;;;7.80;99.90;;;;;;5007999;28;20061;-86
2023/10/25 07:27:30;;;;;;;18.40;11.25;;;7.80;99.90;;;;;;5024080;28;20063;-86
2023/10/25 07:29:56;;;;;;;15.00;10.30;;;7.90;99.90;;;;;;5022234;28;20053;-86
2023/10/25 07:32:21;;;;;;;21.10;12.73;;;8.00;99.90;;;;;;5019401;28;20040;-86
2023/10/25 07:34:47;;;;;;;16.83;11.13;;;8.10;99.90;;;;;;5025189;28;20095;-87
2023/10/25 07:37:13;;;;;;;21.75;10.82;;;8.10;99.90;;;;;;5042330;28;20041;-85
2023/10/25 07:39:40;;;;;;;13.70;10.93;;;8.20;99.90;;;;;;5017378;28;20034;-85
2023/10/25 07:42:06;;;;;;;19.20;10.65;;;8.30;99.90;;;;;;5015803;28;20036;-87
2023/10/25 07:44:32;;;;;;;12.05;10.00;;;8.30;99.90;;;;;;5013604;28;20124;-87
2023/10/25 07:46:57;;;;;;;15.27;10.80;;;8.40;99.90;;;;;;5015547;28;20108;-87
2023/10/25 07:49:23;;;;;;;16.05;10.35;;;8.40;99.90;;;;;;5017758;28;20120;-86
2023/10/25 07:51:48;;;;;;;15.40;9.85;;;8.50;99.90;;;;;;5015351;28;20040;-86
2023/10/25 07:54:14;;;;;;;14.15;9.35;;;8.50;99.90;;;;;;5019114;28;20045;-88
2023/10/25 07:56:39;;;;;;;14.93;10.65;;;8.50;99.90;;;;;;5028863;28;20044;-87
2023/10/25 07:59:05;;;;;;;17.05;10.05;;;8.60;99.90;;;;;;5020826;28;20037;-87
2023/10/25 08:01:31;;;;;;;15.20;10.07;;;8.60;99.90;;;;;;5033576;28;20499;-87
2023/10/25 08:03:56;;;;;;;16.45;10.05;;;8.70;99.90;;;;;;5016506;28;20137;-87
2023/10/25 08:06:22;;;;;;;15.50;10.30;;;8.70;99.90;;;;;;5016581;28;20036;-87
2023/10/25 08:08:50;;;;;;;14.20;9.93;;;8.70;99.90;;;;;;5033272;28;21817;-87
2023/10/25 08:11:16;;;;;;;13.45;9.73;;;8.80;99.90;;;;;;5014183;28;20036;-86
2023/10/25 08:13:44;;;;;;;15.00;9.48;;;8.80;99.90;;;;;;5033337;28;20041;-86
2023/10/25 08:16:10;;;;;;;14.40;9.75;;;8.90;99.90;;;;;;5031662;28;20044;-85
2023/10/25 08:18:35;;;;;;;13.27;10.95;;;8.90;99.90;;;;;;5036414;28;20036;-86
2023/10/25 08:21:02;;;;;;;16.15;10.15;;;8.90;99.90;;;;;;5028774;28;20083;-85
2023/10/25 08:23:28;;;;;;;13.80;10.13;;;9.00;99.90;;;;;;5030642;28;20082;-85
2023/10/25 08:25:59;;;;;;;15.80;10.63;;;9.00;99.90;;;;;;5030373;28;20454;-86
2023/10/25 08:28:25;;;;;;;13.77;10.30;;;9.10;99.90;;;;;;5017063;28;20047;-86
2023/10/25 08:30:51;;;;;;;13.13;10.43;;;9.10;99.90;;;;;;5033175;28;20509;-86
2023/10/25 08:33:16;;;;;;;16.02;10.63;;;9.10;99.90;;;;;;5018234;28;20119;-85
2023/10/25 08:35:43;;;;;;;15.57;10.07;;;9.20;99.90;;;;;;5032848;28;20094;-85
2023/10/25 08:38:09;;;;;;;17.02;10.52;;;9.20;99.90;;;;;;5034086;28;20049;-86
2023/10/25 08:40:39;;;;;;;14.38;10.45;;;9.30;99.90;;;;;;5019048;28;20248;-86
2023/10/25 08:43:05;;;;;;;12.73;10.40;;;9.40;99.90;;;;;;5032823;28;20104;-86
2023/10/25 08:45:37;;;;;;;15.18;10.38;;;9.40;99.90;;;;;;5033337;28;20115;-86
2023/10/25 08:48:04;;;;;;;15.15;11.27;;;9.50;99.90;;;;;;5015062;28;20036;-86
2023/10/25 08:50:33;;;;;;;14.27;10.30;;;9.60;99.90;;;;;;5033311;28;20037;-86
2023/10/25 08:52:59;;;;;;;15.43;10.73;;;9.70;99.90;;;;;;5024066;23;20102;-83
2023/10/25 08:55:25;;;;;;;14.48;10.50;;;9.70;99.90;;;;;;5034246;28;20037;-84
2023/10/25 08:57:55;;;;;;;16.77;11.05;;;9.90;99.90;;;;;;5016450;28;20060;-84
2023/10/25 09:00:23;;;;;;;16.13;10.77;;;10.00;99.90;;;;;;5002846;28;20037;-84
2023/10/25 09:02:49;;;;;;;14.80;10.23;;;10.00;99.90;;;;;;4994438;28;20045;-83
2023/10/25 09:05:15;;;;;;;12.55;9.93;;;10.20;99.90;;;;;;5014802;28;20041;-84
2023/10/25 09:07:41;;;;;;;14.70;9.82;;;10.30;99.90;;;;;;4996902;28;20036;-84
2023/10/25 09:10:22;;;;;;;14.68;10.55;;;10.50;99.90;;;;;;5014602;28;20046;-84
2023/10/25 09:12:49;;;;;;;13.45;9.40;;;10.80;99.90;;;;;;5011423;28;20045;-84
2023/10/25 09:15:28;;;;;;;11.88;9.18;;;11.10;99.90;;;;;;5008261;28;20068;-84
2023/10/25 09:17:53;;;;;;;9.55;7.75;;;11.40;99.90;;;;;;5010962;28;20075;-85
2023/10/25 09:20:26;;;;;;;11.93;8.43;;;11.50;99.90;;;;;;4994672;28;20045;-84
2023/10/25 09:22:51;;;;;;;11.60;8.38;;;11.60;99.90;;;;;;4993320;28;20030;-84
2023/10/25 09:25:29;;;;;;;10.18;8.15;;;11.80;99.90;;;;;;4997734;28;20036;-84
2023/10/25 09:27:54;;;;;;;10.27;7.47;;;11.90;99.90;;;;;;5015329;28;20053;-83
2023/10/25 09:30:20;;;;;;;9.57;7.93;;;12.00;99.90;;;;;;5010487;28;20056;-84
2023/10/25 09:32:46;;;;;;;10.27;7.75;;;12.10;99.90;;;;;;5000423;28;20056;-84
2023/10/25 09:35:12;;;;;;;9.25;8.15;;;12.20;99.90;;;;;;5014486;28;20037;-84
2023/10/25 09:37:38;;;;;;;10.65;7.00;;;12.30;99.90;;;;;;4999850;28;20531;-84
2023/10/25 09:40:04;;;;;;;7.55;6.35;;;12.20;99.90;;;;;;5020549;28;20064;-85
2023/10/25 09:42:31;;;;;;;9.48;6.65;;;12.20;99.90;;;;;;5003009;28;20037;-84
2023/10/25 09:45:03;;;;;;;10.38;6.93;;;12.20;99.90;;;;;;5017355;28;20037;-85
2023/10/25 09:47:32;;;;;;;9.55;6.60;;;12.20;99.90;;;;;;5013549;28;20042;-84
2023/10/25 09:50:16;;;;;;;11.13;6.85;;;12.20;99.90;;;;;;5017968;28;20491;-84
2023/10/25 09:52:47;;;;;;;10.38;6.80;;;12.30;99.90;;;;;;4999261;28;20542;-85
2023/10/25 09:55:24;;;;;;;9.02;7.38;;;12.30;99.90;;;;;;5001352;28;20040;-84
2023/10/25 09:57:53;;;;;;;7.45;5.95;;;12.30;99.90;;;;;;4998762;28;20124;-84
2023/10/25 10:00:20;;;;;;;7.80;6.05;;;12.30;99.90;;;;;;4998811;28;20456;-84
2023/10/25 10:03:02;;;;;;;10.25;6.03;;;12.30;99.90;;;;;;5000215;28;20041;-84
2023/10/25 10:05:37;;;;;;;10.07;6.15;;;12.40;99.90;;;;;;5036876;28;20058;-84
2023/10/25 10:08:16;;;;;;;7.68;5.82;;;12.40;99.90;;;;;;4998645;28;20036;-84
2023/10/25 10:10:58;;;;;;;6.53;5.32;;;12.40;99.90;;;;;;5016779;28;20075;-84
2023/10/25 10:13:24;;;;;;;6.93;6.00;;;12.30;99.90;;;;;;5011884;28;20030;-84
2023/10/25 10:16:09;;;;;;;7.63;6.65;;;12.40;99.90;;;;;;4998696;28;20072;-85
2023/10/25 10:18:37;;;;;;;8.73;7.00;;;12.30;99.90;;;;;;4998437;28;20478;-84
2023/10/25 10:21:05;;;;;;;9.13;6.70;;;12.30;99.90;;;;;;5014858;28;20545;-84
2023/10/25 10:23:38;;;;;;;8.02;5.72;;;12.40;99.90;;;;;;5015557;28;20431;-84
2023/10/25 10:26:05;;;;;;;9.10;6.80;;;12.30;99.90;;;;;;5012675;28;20030;-84
2023/10/25 10:28:46;;;;;;;8.93;6.80;;;12.30;99.90;;;;;;5012951;28;20048;-83
2023/10/25 10:31:12;;;;;;;10.48;7.22;;;12.30;99.90;;;;;;4996138;28;20037;-84
2023/10/25 10:33:46;;;;;;;10.82;6.72;;;12.40;99.90;;;;;;5013426;28;20041;-84
2023/10/25 10:36:32;;;;;;;8.63;6.80;;;12.40;99.90;;;;;;5021382;28;20069;-85
2023/10/25 10:39:17;;;;;;;7.15;6.38;;;12.50;99.90;;;;;;4998908;28;20052;-84
2023/10/25 10:41:44;;;;;;;8.43;5.95;;;12.50;99.90;;;;;;5015330;28;20500;-84
2023/10/25 10:44:13;;;;;;;10.50;6.00;;;12.50;99.90;;;;;;4998650;28;20488;-84
2023/10/25 10:46:53;;;;;;;8.98;5.82;;;12.40;99.90;;;;;;4997098;28;20065;-84
2023/10/25 10:49:21;;;;;;;8.38;6.50;;;12.40;99.90;;;;;;4997087;28;20095;-84
2023/10/25 10:51:48;;;;;;;10.02;5.97;;;12.40;99.90;;;;;;4999633;28;20715;-84
2023/10/25 10:54:13;;;;;;;7.30;6.10;;;12.40;99.90;;;;;;5013287;28;20089;-85
2023/10/25 10:56:39;;;;;;;7.80;6.53;;;12.30;99.90;;;;;;4994806;28;20045;-84
2023/10/25 10:59:06;;;;;;;9.98;6.35;;;12.40;99.90;;;;;;5013042;28;20038;-84
2023/10/25 11:01:32;;;;;;;7.18;5.68;;;12.30;99.90;;;;;;5004552;28;20045;-85
2023/10/25 11:03:58;;;;;;;8.20;5.90;;;12.30;99.90;;;;;;4992940;28;20036;-84
2023/10/25 11:06:24;;;;;;;6.78;5.18;;;12.30;99.90;;;;;;5021225;28;20060;-84
2023/10/25 11:08:51;;;;;;;8.23;5.45;;;12.20;99.90;;;;;;5011849;28;20044;-85
2023/10/25 11:11:21;;;;;;;8.35;5.35;;;12.10;99.90;;;;;;4999937;28;20064;-85
2023/10/25 11:13:50;;;;;;;8.15;6.13;;;12.20;99.90;;;;;;4995354;28;20149;-84
2023/10/25 11:16:16;;;;;;;10.15;5.60;;;12.20;99.90;;;;;;5000370;28;20116;-84
2023/10/25 11:18:42;;;;;;;7.03;5.75;;;12.10;99.90;;;;;;4999584;28;20044;-84
2023/10/25 11:21:07;;;;;;;7.47;5.30;;;12.10;99.90;;;;;;4998738;28;20403;-83
2023/10/25 11:23:33;;;;;;;8.73;5.70;;;12.10;99.90;;;;;;4997939;28;20103;-84
2023/10/25 11:25:59;;;;;;;9.48;6.32;;;12.00;99.90;;;;;;4998696;28;20454;-83
2023/10/25 11:28:26;;;;;;;7.85;5.47;;;12.00;99.90;;;;;;5008071;28;20124;-85
2023/10/25 11:30:52;;;;;;;7.07;5.63;;;11.90;99.90;;;;;;5012975;28;20053;-86
2023/10/25 11:33:18;;;;;;;7.60;5.68;;;12.00;99.90;;;;;;5017015;28;20462;-85
2023/10/25 11:35:44;;;;;;;5.32;4.82;;;11.90;99.90;;;;;;5014164;28;20041;-84
2023/10/25 11:38:11;;;;;;;7.07;5.93;;;11.80;99.90;;;;;;5013076;28;20040;-84
2023/10/25 11:40:42;;;;;;;6.13;5.25;;;11.80;99.90;;;;;;4997986;28;20037;-83
2023/10/25 11:43:08;;;;;;;6.60;5.45;;;11.70;99.90;;;;;;5014736;28;20140;-85
2023/10/25 11:45:37;;;;;;;6.40;5.20;;;11.70;99.90;;;;;;4998293;28;20095;-83
2023/10/25 11:48:04;;;;;;;7.10;5.30;;;11.70;99.90;;;;;;5014522;28;20052;-84
2023/10/25 11:50:30;;;;;;;7.25;5.65;;;11.60;99.90;;;;;;5011363;28;20045;-84
2023/10/25 11:52:59;;;;;;;7.10;5.78;;;11.60;99.90;;;;;;4999848;28;20033;-85
2023/10/25 11:55:28;;;;;;;8.02;5.20;;;11.60;99.90;;;;;;4998200;28;20029;-85
2023/10/25 11:57:56;;;;;;;10.20;5.25;;;11.50;99.90;;;;;;4997359;28;20041;-85
2023/10/25 12:00:21;;;;;;;7.38;5.72;;;11.50;99.90;;;;;;5018061;28;20405;-85
2023/10/25 12:02:47;;;;;;;7.35;5.18;;;11.50;99.90;;;;;;5001372;28;20034;-84
2023/10/25 12:05:13;;;;;;;9.25;5.50;;;11.40;99.90;;;;;;5002096;28;20038;-84
2023/10/25 12:07:38;;;;;;;5.95;5.35;;;11.40;99.90;;;;;;5024502;28;20064;-84
2023/10/25 12:10:04;;;;;;;8.13;5.20;;;11.40;99.90;;;;;;5017623;28;20033;-86
2023/10/25 12:12:31;;;;;;;7.38;5.43;;;11.40;99.90;;;;;;5015645;28;20052;-85
2023/10/25 12:14:57;;;;;;;6.95;5.75;;;11.40;99.90;;;;;;5017983;28;20116;-86
2023/10/25 12:17:23;;;;;;;7.50;5.40;;;11.40;99.90;;;;;;5016405;28;20080;-87
2023/10/25 12:19:51;;;;;;;7.15;6.30;;;11.40;99.90;;;;;;5002607;28;20037;-85
2023/10/25 12:22:18;;;;;;;6.72;5.28;;;11.40;99.90;;;;;;5005703;28;20147;-84
2023/10/25 12:24:48;;;;;;;8.57;6.07;;;11.50;99.90;;;;;;5018860;28;20053;-85
2023/10/25 12:27:14;;;;;;;8.02;5.43;;;11.40;99.90;;;;;;4999056;28;20112;-87
2023/10/25 12:29:40;;;;;;;7.07;5.25;;;11.40;99.90;;;;;;5000932;28;20037;-85
2023/10/25 12:32:06;;;;;;;6.57;5.57;;;11.40;99.90;;;;;;5035902;28;20076;-86
2023/10/25 12:34:56;;;;;;;7.45;5.80;;;11.40;99.90;;;;;;5000989;28;20411;-88
2023/10/25 12:37:33;;;;;;;7.68;5.05;;;11.50;99.90;;;;;;4999263;28;20041;-87
2023/10/25 12:39:59;;;;;;;6.18;5.57;;;11.40;99.90;;;;;;5001891;28;20442;-88
2023/10/25 12:42:28;;;;;;;8.25;5.18;;;11.50;99.90;;;;;;5001592;28;20072;-84
2023/10/25 12:44:54;;;;;;;7.03;5.88;;;11.50;99.90;;;;;;5000452;28;20075;-87
2023/10/25 12:47:22;;;;;;;8.18;5.90;;;11.50;99.90;;;;;;4999380;28;20038;-84